Time;durP1;ratioP1;P1;durP2;ratioP2;P2;SDS_P1;SDS_P2;PMS_P1;PMS_P2;Temp;Humidity;BMP_temperature;BMP_pressure;BME280_temperature;BME280_humidity;BME280_pressure;Samples;Min_cycle;Max_cycle;Signal;HPM_P1;HPM_P2
2021/12/26 00:01:37;;;;;;;;;;;-4.30;99.90;;;;;;5055401;28;19909;-78
2021/12/26 00:04:04;;;;;;;;;;;-4.40;99.90;;;;;;5056178;28;20680;-78
2021/12/26 00:06:29;;;;;;;;;;;-4.40;99.90;;;;;;5055274;28;19913;-79
2021/12/26 00:08:56;;;;;;;;;;;-4.40;99.90;;;;;;5056302;28;19909;-78
2021/12/26 00:11:23;;;;;;;;;;;-4.40;99.90;;;;;;5056329;28;19913;-79
2021/12/26 00:13:50;;;;;;;;;;;-4.40;99.90;;;;;;5055049;28;20303;-78
2021/12/26 00:16:16;;;;;;;;;;;-4.40;99.90;;;;;;5054972;28;20185;-78
2021/12/26 00:18:45;;;;;;;;;;;-4.40;99.90;;;;;;5055049;28;19920;-77
2021/12/26 00:21:11;;;;;;;;;;;-4.40;99.90;;;;;;5054909;28;19919;-79
2021/12/26 00:23:37;;;;;;;;;;;-4.40;99.90;;;;;;5054980;28;19909;-78
2021/12/26 00:26:03;;;;;;;;;;;-4.40;99.90;;;;;;5056001;28;19916;-78
2021/12/26 00:28:28;;;;;;;;;;;-4.40;99.90;;;;;;5055851;28;20304;-77
2021/12/26 00:30:54;;;;;;;;;;;-4.40;99.90;;;;;;5055931;28;20007;-79
2021/12/26 00:33:20;;;;;;;;;;;-4.40;99.90;;;;;;5056004;28;20227;-79
2021/12/26 00:35:45;;;;;;;;;;;-4.40;99.90;;;;;;5055823;28;19915;-76
2021/12/26 00:38:12;;;;;;;;;;;-4.40;99.90;;;;;;5055824;28;19913;-78
2021/12/26 00:40:38;;;;;;;;;;;-4.40;99.90;;;;;;5054520;28;20330;-78
2021/12/26 00:43:04;;;;;;;;;;;-4.40;99.90;;;;;;5055613;28;19923;-78
2021/12/26 00:45:30;;;;;;;;;;;-4.50;99.90;;;;;;5055590;28;19966;-78
2021/12/26 00:47:56;;;;;;;;;;;-4.50;99.90;;;;;;5055765;28;19916;-79
2021/12/26 00:50:24;;;;;;;;;;;-4.50;99.90;;;;;;5054257;28;20219;-80
2021/12/26 00:52:49;;;;;;;;;;;-4.50;99.90;;;;;;5055487;28;19912;-78
2021/12/26 00:55:15;;;;;;;;;;;-4.40;99.90;;;;;;5055577;28;19995;-77
2021/12/26 00:57:41;;;;;;;;;;;-4.40;99.90;;;;;;5054145;28;19932;-79
2021/12/26 01:00:08;;;;;;;;;;;-4.40;99.90;;;;;;5055169;28;19913;-78
2021/12/26 01:02:34;;;;;;;;;;;-4.40;99.90;;;;;;5055470;28;20299;-78
2021/12/26 01:04:59;;;;;;;;;;;-4.40;99.90;;;;;;5055230;28;19909;-78
2021/12/26 01:07:38;;;;;;;;;;;-4.50;99.90;;;;;;5055469;28;20370;-73
2021/12/26 01:10:05;;;;;;;;;;;-4.50;99.90;;;;;;5054200;28;20028;-78
2021/12/26 01:12:31;;;;;;;;;;;-4.50;99.90;;;;;;5054906;28;19917;-78
2021/12/26 01:15:03;;;;;;;;;;;-4.50;99.90;;;;;;5055378;28;19909;-77
2021/12/26 01:17:29;;;;;;;;;;;-4.50;99.90;;;;;;5054483;28;20308;-77
2021/12/26 01:19:54;;;;;;;;;;;-4.50;99.90;;;;;;5055319;28;19916;-78
2021/12/26 01:22:23;;;;;;;;;;;-4.50;99.90;;;;;;5055513;28;19909;-78
2021/12/26 01:24:55;;;;;;;;;;;-4.50;99.90;;;;;;5055384;28;19913;-78
2021/12/26 01:27:21;;;;;;;;;;;-4.50;99.90;;;;;;5054432;28;20675;-78
2021/12/26 01:29:47;;;;;;;;;;;-4.50;99.90;;;;;;5055151;28;19931;-78
2021/12/26 01:32:13;;;;;;;;;;;-4.50;99.90;;;;;;5055124;28;20292;-79
2021/12/26 01:34:38;;;;;;;;;;;-4.60;99.90;;;;;;5054365;28;19908;-79
2021/12/26 01:37:04;;;;;;;;;;;-4.60;99.90;;;;;;5054920;28;20741;-78
2021/12/26 01:39:29;;;;;;;;;;;-4.60;99.90;;;;;;5055030;28;20004;-79
2021/12/26 01:42:01;;;;;;;;;;;-4.60;99.90;;;;;;5054971;28;20296;-77
2021/12/26 01:44:27;;;;;;;;;;;-4.60;99.90;;;;;;5053894;28;19959;-78
2021/12/26 01:46:52;;;;;;;;;;;-4.60;99.90;;;;;;5053857;28;19909;-77
2021/12/26 01:49:20;;;;;;;;;;;-4.60;99.90;;;;;;5054879;28;20247;-79
2021/12/26 01:51:46;;;;;;;;;;;-4.70;99.90;;;;;;5055002;28;19909;-78
2021/12/26 01:54:13;;;;;;;;;;;-4.60;99.90;;;;;;5053832;28;19916;-78
2021/12/26 01:56:39;;;;;;;;;;;-4.60;99.90;;;;;;5053567;28;19920;-78
2021/12/26 01:59:06;;;;;;;;;;;-4.60;99.90;;;;;;5057284;28;20338;-75
2021/12/26 02:01:32;;;;;;;;;;;-4.60;99.90;;;;;;5058806;28;19920;-78
2021/12/26 02:03:58;;;;;;;;;;;-4.50;99.90;;;;;;5058546;28;19913;-78
2021/12/26 02:06:23;;;;;;;;;;;-4.60;99.90;;;;;;5054594;23;19933;-78
2021/12/26 02:08:49;;;;;;;;;;;-4.60;99.90;;;;;;5038743;28;19913;-78
2021/12/26 02:11:15;;;;;;;;;;;-4.60;99.90;;;;;;5037339;28;19913;-78
2021/12/26 02:13:41;;;;;;;;;;;-4.60;99.90;;;;;;5038470;28;20267;-78
2021/12/26 02:16:08;;;;;;;;;;;-4.50;99.90;;;;;;5038493;28;19909;-78
2021/12/26 02:18:33;;;;;;;;;;;-4.60;99.90;;;;;;5037276;28;19947;-79
2021/12/26 02:24:00;;;;;;;;;;;-4.60;99.90;;;;;;5056635;23;19925;-79
2021/12/26 02:29:01;;;;;;;;;;;-4.70;99.90;;;;;;5058476;28;19958;-78
2021/12/26 02:31:27;;;;;;;;;;;-4.70;99.90;;;;;;5057152;28;20335;-78
2021/12/26 02:33:52;;;;;;;;;;;-4.70;99.90;;;;;;5058025;28;19916;-78
2021/12/26 02:36:18;;;;;;;;;;;-4.70;99.90;;;;;;5056934;28;20287;-77
2021/12/26 02:38:43;;;;;;;;;;;-4.60;99.90;;;;;;5056951;28;19943;-77
2021/12/26 02:41:09;;;;;;;;;;;-4.70;99.90;;;;;;5057974;28;19944;-77
2021/12/26 02:43:36;;;;;;;;;;;-4.70;99.90;;;;;;5057960;28;19909;-78
2021/12/26 02:46:06;;;;;;;;;;;-4.70;99.90;;;;;;5057778;28;19909;-78
2021/12/26 02:48:31;;;;;;;;;;;-4.70;99.90;;;;;;5056669;28;19912;-78
2021/12/26 02:50:57;;;;;;;;;;;-4.70;99.90;;;;;;5056750;28;20357;-74
2021/12/26 02:53:23;;;;;;;;;;;-4.70;99.90;;;;;;5056627;28;19909;-77
2021/12/26 02:55:52;;;;;;;;;;;-4.70;99.90;;;;;;5057583;28;19980;-77
2021/12/26 02:58:18;;;;;;;;;;;-4.80;99.90;;;;;;5057683;28;20208;-78
2021/12/26 03:00:49;;;;;;;;;;;-4.70;99.90;;;;;;5056574;28;19924;-77
2021/12/26 03:03:15;;;;;;;;;;;-4.70;99.90;;;;;;5057696;28;19999;-78
2021/12/26 03:05:43;;;;;;;;;;;-4.70;99.90;;;;;;5057535;28;20606;-78
2021/12/26 03:08:10;;;;;;;;;;;-4.70;99.90;;;;;;5057502;28;19970;-77
2021/12/26 03:10:36;;;;;;;;;;;-4.80;99.90;;;;;;5056010;28;20193;-78
2021/12/26 03:13:04;;;;;;;;;;;-4.80;99.90;;;;;;5057201;28;19915;-78
2021/12/26 03:15:30;;;;;;;;;;;-4.80;99.90;;;;;;5057179;28;19913;-78
2021/12/26 03:17:56;;;;;;;;;;;-4.80;99.90;;;;;;5056164;28;20055;-78
2021/12/26 03:20:25;;;;;;;;;;;-4.80;99.90;;;;;;5057243;28;20004;-79
2021/12/26 03:22:50;;;;;;;;;;;-4.80;99.90;;;;;;5056976;28;19965;-78
2021/12/26 03:25:20;;;;;;;;;;;-4.80;99.90;;;;;;5057055;28;19913;-78
2021/12/26 03:27:46;;;;;;;;;;;-4.90;99.90;;;;;;5057098;28;20476;-78
2021/12/26 03:30:14;;;;;;;;;;;-4.90;99.90;;;;;;5057245;28;19912;-78
2021/12/26 03:32:40;;;;;;;;;;;-4.90;99.90;;;;;;5057047;28;19913;-78
2021/12/26 03:35:06;;;;;;;;;;;-4.80;99.90;;;;;;5056867;28;19916;-79
2021/12/26 03:37:32;;;;;;;;;;;-4.70;99.90;;;;;;5056821;28;19913;-78
2021/12/26 03:39:57;;;;;;;;;;;-4.70;99.90;;;;;;5056829;28;19917;-75
2021/12/26 03:42:23;;;;;;;;;;;-4.70;99.90;;;;;;5055791;28;19909;-78
2021/12/26 03:44:49;;;;;;;;;;;-4.70;99.90;;;;;;5056911;28;19967;-77
2021/12/26 03:47:14;;;;;;;;;;;-4.70;99.90;;;;;;5056677;28;19915;-79
2021/12/26 03:49:40;;;;;;;;;;;-4.70;99.90;;;;;;5055733;28;19964;-78
2021/12/26 03:52:06;;;;;;;;;;;-4.70;99.90;;;;;;5055657;28;20430;-79
2021/12/26 03:54:32;;;;;;;;;;;-4.70;99.90;;;;;;5056418;28;19954;-78
2021/12/26 03:56:57;;;;;;;;;;;-4.70;99.90;;;;;;5056692;28;20189;-78
2021/12/26 03:59:23;;;;;;;;;;;-4.70;99.90;;;;;;5056504;28;19920;-78
2021/12/26 04:01:48;;;;;;;;;;;-4.70;99.90;;;;;;5055369;28;19915;-78
2021/12/26 04:04:14;;;;;;;;;;;-4.70;99.90;;;;;;5056278;28;19913;-78
2021/12/26 04:06:40;;;;;;;;;;;-4.70;99.90;;;;;;5055114;28;19909;-77
2021/12/26 04:09:07;;;;;;;;;;;-4.70;99.90;;;;;;5056359;28;19912;-79
2021/12/26 04:11:33;;;;;;;;;;;-4.70;99.90;;;;;;5056456;28;19916;-78
2021/12/26 04:13:58;;;;;;;;;;;-4.70;99.90;;;;;;5056183;28;19909;-78
2021/12/26 04:16:24;;;;;;;;;;;-4.80;99.90;;;;;;5056389;28;19995;-78
2021/12/26 04:18:49;;;;;;;;;;;-4.70;99.90;;;;;;5055985;28;20365;-78
2021/12/26 04:21:15;;;;;;;;;;;-4.70;99.90;;;;;;5055917;28;19913;-79
2021/12/26 04:23:41;;;;;;;;;;;-4.80;99.90;;;;;;5054771;28;20250;-78
2021/12/26 04:26:06;;;;;;;;;;;-4.70;99.90;;;;;;5054988;28;19917;-79
2021/12/26 04:28:32;;;;;;;;;;;-4.70;99.90;;;;;;5056135;28;19916;-78
2021/12/26 04:30:58;;;;;;;;;;;-4.70;99.90;;;;;;5056347;28;19909;-74
2021/12/26 04:33:24;;;;;;;;;;;-4.70;99.90;;;;;;5054795;28;19909;-78
2021/12/26 04:35:50;;;;;;;;;;;-4.70;99.90;;;;;;5056201;28;19943;-78
2021/12/26 04:38:15;;;;;;;;;;;-4.70;99.90;;;;;;5056061;28;19962;-78
2021/12/26 04:40:41;;;;;;;;;;;-4.70;99.90;;;;;;5054914;28;20009;-78
2021/12/26 04:43:07;;;;;;;;;;;-4.70;99.90;;;;;;5055648;28;19909;-78
2021/12/26 04:45:32;;;;;;;;;;;-4.70;99.90;;;;;;5055384;28;20323;-77
2021/12/26 04:48:01;;;;;;;;;;;-4.70;99.90;;;;;;5055623;28;19908;-75
2021/12/26 04:50:28;;;;;;;;;;;-4.70;99.90;;;;;;5054531;28;19917;-76
2021/12/26 04:52:54;;;;;;;;;;;-4.70;99.90;;;;;;5055505;28;20229;-78
2021/12/26 04:55:22;;;;;;;;;;;-4.70;99.90;;;;;;5055608;28;20201;-79
2021/12/26 04:57:48;;;;;;;;;;;-4.70;99.90;;;;;;5054324;28;19909;-78
2021/12/26 05:00:16;;;;;;;;;;;-4.80;99.90;;;;;;5054495;28;19939;-78
2021/12/26 05:02:42;;;;;;;;;;;-4.80;99.90;;;;;;5055230;28;19982;-78
2021/12/26 05:05:08;;;;;;;;;;;-4.80;99.90;;;;;;5055254;28;19913;-77
2021/12/26 05:07:34;;;;;;;;;;;-4.80;99.90;;;;;;5055322;28;20328;-79
2021/12/26 05:10:00;;;;;;;;;;;-4.80;99.90;;;;;;5055451;28;19909;-77
2021/12/26 05:12:26;;;;;;;;;;;-4.80;99.90;;;;;;5055451;28;19920;-79
2021/12/26 05:14:52;;;;;;;;;;;-4.80;99.90;;;;;;5055262;28;19912;-79
2021/12/26 05:17:18;;;;;;;;;;;-4.80;99.90;;;;;;5054077;28;19937;-78
2021/12/26 05:19:43;;;;;;;;;;;-4.90;99.90;;;;;;5053907;28;20312;-78
2021/12/26 05:22:09;;;;;;;;;;;-4.90;99.90;;;;;;5055131;28;19908;-79
2021/12/26 05:24:34;;;;;;;;;;;-4.90;99.90;;;;;;5055027;28;19948;-79
2021/12/26 05:27:00;;;;;;;;;;;-4.90;99.90;;;;;;5055040;28;20318;-78
2021/12/26 05:29:26;;;;;;;;;;;-4.90;99.90;;;;;;5055133;28;19909;-79
2021/12/26 05:31:53;;;;;;;;;;;-4.90;99.90;;;;;;5055216;28;19909;-79
2021/12/26 05:34:19;;;;;;;;;;;-4.90;99.90;;;;;;5057006;28;19962;-79
2021/12/26 05:36:44;;;;;;;;;;;-4.90;99.90;;;;;;5057951;28;19913;-78
2021/12/26 05:39:10;;;;;;;;;;;-4.90;99.90;;;;;;5059108;28;19919;-78
2021/12/26 05:41:35;;;;;;;;;;;-4.90;99.90;;;;;;5059101;28;19990;-78
2021/12/26 05:44:01;;;;;;;;;;;-4.90;99.90;;;;;;5059100;28;19935;-78
2021/12/26 05:46:27;;;;;;;;;;;-4.90;99.90;;;;;;5059144;28;20026;-77
2021/12/26 05:48:52;;;;;;;;;;;-4.90;99.90;;;;;;5058766;28;19917;-78
2021/12/26 05:51:18;;;;;;;;;;;-5.00;99.90;;;;;;5059225;28;19966;-78
2021/12/26 05:53:44;;;;;;;;;;;-4.90;99.90;;;;;;5058801;28;19915;-78
2021/12/26 05:56:09;;;;;;;;;;;-4.90;99.90;;;;;;5064381;23;20324;-78
2021/12/26 05:58:35;;;;;;;;;;;-4.90;99.90;;;;;;5058832;28;19909;-79
2021/12/26 06:01:00;;;;;;;;;;;-4.90;99.90;;;;;;5058701;28;20285;-78
2021/12/26 06:03:26;;;;;;;;;;;-4.90;99.90;;;;;;5058588;28;19912;-78
2021/12/26 06:05:52;;;;;;;;;;;-4.80;99.90;;;;;;5058700;28;19909;-78
2021/12/26 06:08:18;;;;;;;;;;;-4.90;99.90;;;;;;5058714;28;19913;-79
2021/12/26 06:10:43;;;;;;;;;;;-4.80;99.90;;;;;;5074320;28;19963;-79
2021/12/26 06:13:09;;;;;;;;;;;-4.80;99.90;;;;;;5073956;28;19920;-78
2021/12/26 06:15:35;;;;;;;;;;;-4.80;99.90;;;;;;5058400;28;19909;-79
2021/12/26 06:18:00;;;;;;;;;;;-4.80;99.90;;;;;;5058555;28;19909;-79
2021/12/26 06:20:26;;;;;;;;;;;-4.90;99.90;;;;;;5058650;28;19916;-79
2021/12/26 06:22:51;;;;;;;;;;;-4.90;99.90;;;;;;5058477;28;19920;-79
2021/12/26 06:25:17;;;;;;;;;;;-4.90;99.90;;;;;;5051511;28;19967;-79
2021/12/26 06:27:43;;;;;;;;;;;-4.90;99.90;;;;;;5045954;28;20327;-74
2021/12/26 06:30:09;;;;;;;;;;;-4.90;99.90;;;;;;5040639;28;20374;-77
2021/12/26 06:32:34;;;;;;;;;;;-4.90;99.90;;;;;;5038353;28;19913;-77
2021/12/26 06:35:01;;;;;;;;;;;-4.80;99.90;;;;;;5049945;28;19999;-78
2021/12/26 06:37:30;;;;;;;;;;;-4.80;99.90;;;;;;5055708;28;20486;-79
2021/12/26 06:39:56;;;;;;;;;;;-4.90;99.90;;;;;;5057505;28;19912;-79
2021/12/26 06:42:22;;;;;;;;;;;-4.90;99.90;;;;;;5045151;28;20216;-78
2021/12/26 06:44:49;;;;;;;;;;;-4.90;99.90;;;;;;5047934;28;19909;-78
2021/12/26 06:47:15;;;;;;;;;;;-4.90;99.90;;;;;;5042727;28;19917;-78
2021/12/26 06:49:41;;;;;;;;;;;-4.90;99.90;;;;;;5040225;28;19920;-77
2021/12/26 06:52:07;;;;;;;;;;;-4.90;99.90;;;;;;5042705;28;20046;-78
2021/12/26 06:54:33;;;;;;;;;;;-4.90;99.90;;;;;;5037338;28;20480;-78
2021/12/26 06:56:59;;;;;;;;;;;-4.90;99.90;;;;;;5038095;28;20201;-79
2021/12/26 06:59:24;;;;;;;;;;;-4.90;99.90;;;;;;5042684;28;19924;-78
2021/12/26 07:01:50;;;;;;;;;;;-4.90;99.90;;;;;;5037018;28;19913;-77
2021/12/26 07:04:15;;;;;;;;;;;-4.90;99.90;;;;;;5042376;28;20295;-78
2021/12/26 07:06:41;;;;;;;;;;;-5.00;99.90;;;;;;5036378;28;19920;-78
2021/12/26 07:09:06;;;;;;;;;;;-5.00;99.90;;;;;;5036197;28;19932;-79
2021/12/26 07:11:32;;;;;;;;;;;-4.90;99.90;;;;;;5037600;28;20266;-78
2021/12/26 07:13:58;;;;;;;;;;;-4.90;99.90;;;;;;5037414;28;20220;-79
2021/12/26 07:16:24;;;;;;;;;;;-4.90;99.90;;;;;;5036525;28;19909;-79
2021/12/26 07:18:50;;;;;;;;;;;-4.90;99.90;;;;;;5037290;28;19967;-79
2021/12/26 07:21:16;;;;;;;;;;;-4.90;99.90;;;;;;5037318;28;19909;-79
2021/12/26 07:23:42;;;;;;;;;;;-4.90;99.90;;;;;;5037247;28;19909;-79
2021/12/26 07:26:07;;;;;;;;;;;-5.00;99.90;;;;;;5037054;28;19913;-79
2021/12/26 07:28:33;;;;;;;;;;;-5.00;99.90;;;;;;5036210;28;19959;-79
2021/12/26 07:30:59;;;;;;;;;;;-5.00;99.90;;;;;;5037262;28;19936;-77
2021/12/26 07:33:24;;;;;;;;;;;-5.00;99.90;;;;;;5036819;28;19909;-79
2021/12/26 07:35:50;;;;;;;;;;;-5.00;99.90;;;;;;5037254;28;19920;-79
2021/12/26 07:38:18;;;;;;;;;;;-5.10;99.90;;;;;;5035790;28;19920;-80
2021/12/26 07:40:45;;;;;;;;;;;-5.10;99.90;;;;;;5035922;28;19912;-78
2021/12/26 07:43:11;;;;;;;;;;;-5.00;99.90;;;;;;5037069;28;20163;-79
2021/12/26 07:45:36;;;;;;;;;;;-5.10;99.90;;;;;;5037127;28;20360;-79
2021/12/26 07:48:02;;;;;;;;;;;-5.00;99.90;;;;;;5035941;28;19917;-79
2021/12/26 07:50:28;;;;;;;;;;;-5.00;99.90;;;;;;5036979;28;20272;-78
2021/12/26 07:52:54;;;;;;;;;;;-5.00;99.90;;;;;;5037162;28;19914;-81
2021/12/26 07:55:20;;;;;;;;;;;-5.00;99.90;;;;;;5036203;28;19928;-79
2021/12/26 07:57:48;;;;;;;;;;;-5.00;99.90;;;;;;5035512;28;19909;-80
2021/12/26 08:00:15;;;;;;;;;;;-5.00;99.90;;;;;;5036094;28;20375;-78
2021/12/26 08:02:40;;;;;;;;;;;-5.00;99.90;;;;;;5046865;28;20003;-78
2021/12/26 08:05:06;;;;;;;;;;;-5.00;99.90;;;;;;5051051;28;20051;-79
2021/12/26 08:07:32;;;;;;;;;;;-4.90;99.90;;;;;;5041442;28;19916;-79
2021/12/26 08:09:58;;;;;;;;;;;-4.90;99.90;;;;;;5035739;28;19917;-78
2021/12/26 08:12:23;;;;;;;;;;;-4.90;99.90;;;;;;5051030;28;20617;-79
2021/12/26 08:14:49;;;;;;;;;;;-4.90;99.90;;;;;;5035683;28;19913;-79
2021/12/26 08:17:14;;;;;;;;;;;-4.80;99.90;;;;;;5041331;28;19912;-78
2021/12/26 08:19:40;;;;;;;;;;;-4.80;99.90;;;;;;5041123;28;20003;-78
2021/12/26 08:22:06;;;;;;;;;;;-4.70;99.90;;;;;;5040904;28;19913;-79
2021/12/26 08:24:31;;;;;;;;;;;-4.70;99.90;;;;;;5035429;28;19913;-79
2021/12/26 08:26:57;;;;;;;;;;;-4.70;99.90;;;;;;5035529;28;19983;-79
2021/12/26 08:29:23;;;;;;;;;;;-4.70;99.90;;;;;;5041024;28;19996;-79
2021/12/26 08:31:57;;;;;;;;;;;-4.60;99.90;;;;;;5039355;28;19909;-78
2021/12/26 08:34:23;;;;;;;;;;;-4.60;99.90;;;;;;5045033;28;19909;-79
2021/12/26 08:36:59;;;;;;;;;;;-4.50;99.90;;;;;;5036851;28;19920;-74
2021/12/26 08:39:28;;;;;;;;;;;-4.50;99.90;;;;;;5051558;28;19919;-79
2021/12/26 08:41:54;;;;;;;;;;;-4.40;99.90;;;;;;5040641;28;19908;-79
2021/12/26 08:44:20;;;;;;;;;;;-4.40;99.90;;;;;;5049448;28;20034;-78
2021/12/26 08:46:46;;;;;;;;;;;-4.40;99.90;;;;;;5036620;28;20331;-79
2021/12/26 08:49:12;;;;;;;;;;;-4.30;99.90;;;;;;5037824;28;19916;-79
2021/12/26 08:51:38;;;;;;;;;;;-4.30;99.90;;;;;;5043234;28;19919;-78
2021/12/26 08:54:04;;;;;;;;;;;-4.30;99.90;;;;;;5048225;28;19916;-79
2021/12/26 08:56:30;;;;;;;;;;;-4.30;99.90;;;;;;5039069;28;19921;-78
2021/12/26 08:58:55;;;;;;;;;;;-4.30;99.90;;;;;;5050832;28;20091;-78
2021/12/26 09:01:21;;;;;;;;;;;-4.20;99.90;;;;;;5044337;23;19979;-78
2021/12/26 09:03:46;;;;;;;;;;;-4.20;99.90;;;;;;5034671;28;19909;-79
2021/12/26 09:06:12;;;;;;;;;;;-4.10;99.90;;;;;;5033535;28;19909;-78
2021/12/26 09:08:38;;;;;;;;;;;-4.10;99.90;;;;;;5034450;28;19920;-79
2021/12/26 09:11:04;;;;;;;;;;;-4.10;99.90;;;;;;5033697;28;20008;-79
2021/12/26 09:13:29;;;;;;;;;;;-4.00;99.90;;;;;;5039151;28;19967;-75
2021/12/26 09:15:55;;;;;;;;;;;-3.90;99.90;;;;;;5034437;28;19909;-79
2021/12/26 09:18:21;;;;;;;;;;;-3.90;99.90;;;;;;5034754;28;20347;-79
2021/12/26 09:20:46;;;;;;;;;;;-3.90;99.90;;;;;;5037162;28;19924;-78
2021/12/26 09:23:12;;;;;;;;;;;-3.80;99.90;;;;;;5017150;28;19945;-78
2021/12/26 09:25:37;;;;;;;;;;;-3.80;99.90;;;;;;5034454;28;20186;-79
2021/12/26 09:28:03;;;;;;;;;;;-3.70;99.90;;;;;;5035887;28;19919;-79
2021/12/26 09:30:29;;;;;;;;;;;-3.60;99.90;;;;;;5035723;28;20275;-79
2021/12/26 09:32:55;;;;;;;;;;;-3.60;99.90;;;;;;5016897;28;20356;-78
2021/12/26 09:35:20;;;;;;;;;;;-3.50;99.90;;;;;;5049530;23;20035;-76
2021/12/26 09:37:46;;;;;;;;;;;-3.50;99.90;;;;;;5053472;28;20323;-79
2021/12/26 09:40:14;;;;;;;;;;;-3.40;99.90;;;;;;5054294;28;19940;-78
2021/12/26 09:42:41;;;;;;;;;;;-3.40;99.90;;;;;;5054351;28;19920;-79
2021/12/26 09:45:09;;;;;;;;;;;-3.30;99.90;;;;;;5054735;28;19912;-79
2021/12/26 09:47:35;;;;;;;;;;;-3.20;99.90;;;;;;5053685;28;19995;-79
2021/12/26 09:50:02;;;;;;;;;;;-3.10;99.90;;;;;;5054931;28;20319;-78
2021/12/26 09:52:27;;;;;;;;;;;-3.10;99.90;;;;;;5053838;28;20331;-79
2021/12/26 09:54:53;;;;;;;;;;;-3.00;99.90;;;;;;5056529;28;19940;-78
2021/12/26 09:57:18;;;;;;;;;;;-3.00;99.90;;;;;;5056898;28;19916;-79
2021/12/26 09:59:47;;;;;;;;;;;-3.00;99.90;;;;;;5054160;28;19978;-79
2021/12/26 10:02:15;;;;;;;;;;;-2.90;99.90;;;;;;5039272;28;19916;-79
2021/12/26 10:04:41;;;;;;;;;;;-2.80;99.90;;;;;;5053957;28;20323;-78
2021/12/26 10:07:14;;;;;;;;;;;-2.70;99.90;;;;;;5052555;28;19913;-80
2021/12/26 10:09:41;;;;;;;;;;;-2.60;99.90;;;;;;5054062;28;19909;-79
2021/12/26 10:12:07;;;;;;;;;;;-2.50;99.90;;;;;;5059576;28;19919;-79
2021/12/26 10:14:33;;;;;;;;;;;-2.50;99.90;;;;;;5053849;28;19909;-79
2021/12/26 10:17:00;;;;;;;;;;;-2.40;99.90;;;;;;5053527;28;19912;-79
2021/12/26 10:19:26;;;;;;;;;;;-2.40;99.90;;;;;;5036623;28;19918;-79
2021/12/26 10:21:53;;;;;;;;;;;-2.30;99.90;;;;;;5057117;28;19936;-78
2021/12/26 10:24:22;;;;;;;;;;;-2.30;99.90;;;;;;5058704;28;19938;-80
2021/12/26 10:26:53;;;;;;;;;;;-2.20;99.90;;;;;;5054331;28;19952;-79
2021/12/26 10:29:19;;;;;;;;;;;-2.10;99.90;;;;;;5060371;28;19995;-79
2021/12/26 10:31:56;;;;;;;;;;;-2.10;99.90;;;;;;5060241;28;20015;-79
2021/12/26 10:34:26;;;;;;;;;;;-2.00;99.90;;;;;;5056124;28;19966;-78
2021/12/26 10:36:53;;;;;;;;;;;-2.00;99.90;;;;;;5057206;28;19920;-78
2021/12/26 10:39:21;;;;;;;;;;;-1.90;99.90;;;;;;5059886;28;19970;-79
2021/12/26 10:41:51;;;;;;;;;;;-1.80;99.90;;;;;;5057144;28;19917;-79
2021/12/26 10:44:23;;;;;;;;;;;-1.70;99.90;;;;;;5057547;28;19909;-79
2021/12/26 10:46:49;;;;;;;;;;;-1.70;99.90;;;;;;5059565;28;20004;-79
2021/12/26 10:49:21;;;;;;;;;;;-1.50;99.90;;;;;;5053296;28;19909;-79
2021/12/26 10:51:47;;;;;;;;;;;-1.60;99.90;;;;;;5057100;28;19917;-79
2021/12/26 10:54:13;;;;;;;;;;;-1.50;99.90;;;;;;5049816;23;19926;-73
2021/12/26 10:56:39;;;;;;;;;;;-1.50;99.90;;;;;;5059766;28;19966;-79
2021/12/26 10:59:17;;;;;;;;;;;-1.50;99.90;;;;;;5056646;28;19913;-79
2021/12/26 11:01:43;;;;;;;;;;;-1.50;99.90;;;;;;5058640;28;20185;-79
2021/12/26 11:04:11;;;;;;;;;;;-1.50;99.90;;;;;;5044244;28;20003;-79
2021/12/26 11:06:56;;;;;;;;;;;-1.40;99.90;;;;;;5057070;28;19913;-78
2021/12/26 11:09:21;;;;;;;;;;;-1.30;99.90;;;;;;5057142;28;19923;-79
2021/12/26 11:12:01;;;;;;;;;;;-1.30;99.90;;;;;;5059594;28;19991;-79
2021/12/26 11:14:27;;;;;;;;;;;-1.20;99.90;;;;;;5053657;28;19916;-79
2021/12/26 11:16:52;;;;;;;;;;;-1.10;99.90;;;;;;5025100;28;19963;-77
2021/12/26 11:19:37;;;;;;;;;;;-1.10;99.90;;;;;;5056691;28;19919;-79
2021/12/26 11:22:03;;;;;;;;;;;-1.10;99.90;;;;;;5053076;28;19944;-79
2021/12/26 11:24:29;;;;;;;;;;;-1.00;99.90;;;;;;5056292;28;19955;-79
2021/12/26 11:26:54;;;;;;;;;;;-1.00;99.90;;;;;;5060541;28;19908;-79
2021/12/26 11:29:20;;;;;;;;;;;-1.00;99.90;;;;;;5056631;28;19916;-79
2021/12/26 11:31:48;;;;;;;;;;;-0.90;99.90;;;;;;5055444;28;19955;-79
2021/12/26 11:34:14;;;;;;;;;;;-0.90;99.90;;;;;;5059921;28;19909;-78
2021/12/26 11:36:39;;;;;;;;;;;-0.80;99.90;;;;;;5058215;28;19909;-79
2021/12/26 11:39:08;;;;;;;;;;;-0.80;99.90;;;;;;5059094;28;19909;-79
2021/12/26 11:41:40;;;;;;;;;;;-0.70;99.90;;;;;;5052369;28;19908;-78
2021/12/26 11:44:35;;;;;;;;;;;-0.70;99.90;;;;;;5056108;28;19913;-79
2021/12/26 11:47:20;;;;;;;;;;;-0.70;99.90;;;;;;5001934;28;19960;-79
2021/12/26 11:50:01;;;;;;;;;;;-0.80;99.90;;;;;;5056153;28;20205;-79
2021/12/26 11:52:36;;;;;;;;;;;-0.90;99.90;;;;;;5055075;28;19919;-78
2021/12/26 11:55:19;;;;;;;;;;;-0.90;99.90;;;;;;5056570;28;19916;-77
2021/12/26 11:58:00;;;;;;;;;;;-0.90;99.90;;;;;;5055436;28;19922;-78
2021/12/26 12:00:27;;;;;;;;;;;-1.00;99.90;;;;;;5055477;28;19913;-78
2021/12/26 12:02:54;;;;;;;;;;;-1.00;99.90;;;;;;5055351;28;19960;-78
2021/12/26 12:05:27;;;;;;;;;;;-0.90;99.90;;;;;;5055659;28;19913;-78
2021/12/26 12:07:58;;;;;;;;;;;-0.90;99.90;;;;;;5055585;28;19913;-78
2021/12/26 12:10:43;;;;;;;;;;;-0.90;99.90;;;;;;5055512;28;19913;-79
2021/12/26 12:13:12;;;;;;;;;;;-0.80;99.90;;;;;;5055713;28;19909;-79
2021/12/26 12:15:41;;;;;;;;;;;-0.70;99.90;;;;;;5040677;28;19909;-78
2021/12/26 12:18:08;;;;;;;;;;;-0.60;99.90;;;;;;5058413;28;19913;-79
2021/12/26 12:20:34;;;;;;;;;;;-0.60;99.90;;;;;;5056823;28;19920;-78
2021/12/26 12:23:08;;;;;;;;;;;-0.50;99.90;;;;;;5055286;28;19956;-79
2021/12/26 12:25:38;;;;;;;;;;;-0.50;99.90;;;;;;5043279;28;20320;-78
2021/12/26 12:28:10;;;;;;;;;;;-0.40;99.90;;;;;;5040909;28;19915;-78
2021/12/26 12:30:40;;;;;;;;;;;-0.30;99.90;;;;;;5055222;28;19917;-78
2021/12/26 12:33:28;;;;;;;;;;;-0.20;99.90;;;;;;5058056;28;19996;-78
2021/12/26 12:36:04;;;;;;;;;;;-0.20;99.90;;;;;;5053982;28;19909;-78
2021/12/26 12:38:29;;;;;;;;;;;-0.10;99.90;;;;;;5057910;28;19956;-78
2021/12/26 12:40:56;;;;;;;;;;;-0.10;99.90;;;;;;5053870;28;20338;-79
2021/12/26 12:43:23;;;;;;;;;;;0.00;99.90;;;;;;5054692;28;20337;-79
2021/12/26 12:45:55;;;;;;;;;;;0.10;99.90;;;;;;5056676;28;19920;-78
2021/12/26 12:48:22;;;;;;;;;;;0.10;99.90;;;;;;5035579;28;19913;-78
2021/12/26 12:50:48;;;;;;;;;;;0.10;99.90;;;;;;5055396;28;20004;-79
2021/12/26 12:53:32;;;;;;;;;;;0.10;99.90;;;;;;5054712;28;20012;-78
2021/12/26 12:55:58;;;;;;;;;;;0.10;99.90;;;;;;5057539;28;19913;-78
2021/12/26 12:58:31;;;;;;;;;;;0.20;99.90;;;;;;5054828;28;19939;-78
2021/12/26 13:00:57;;;;;;;;;;;0.20;99.90;;;;;;5050883;28;19939;-79
2021/12/26 13:03:22;;;;;;;;;;;0.20;99.90;;;;;;5044627;23;20451;-78
2021/12/26 13:05:49;;;;;;;;;;;0.30;99.90;;;;;;5017661;28;20253;-79
2021/12/26 13:08:16;;;;;;;;;;;0.30;99.90;;;;;;5014106;28;19956;-77
2021/12/26 13:10:41;;;;;;;;;;;0.30;99.90;;;;;;5014799;28;20280;-78
2021/12/26 13:13:12;;;;;;;;;;;0.40;99.90;;;;;;5015034;28;19984;-78
2021/12/26 13:15:53;;;;;;;;;;;0.40;99.90;;;;;;5013633;28;19910;-78
2021/12/26 13:18:19;;;;;;;;;;;0.30;99.90;;;;;;5014897;28;19910;-79
2021/12/26 13:20:49;;;;;;;;;;;0.30;99.90;;;;;;5004539;28;19973;-78
2021/12/26 13:23:15;;;;;;;;;;;0.20;99.90;;;;;;4998926;28;20004;-77
2021/12/26 13:25:42;;;;;;;;;;;0.30;99.90;;;;;;5014450;28;20024;-79
2021/12/26 13:28:10;;;;;;;;;;;0.30;99.90;;;;;;5016419;28;19916;-79
2021/12/26 13:30:39;;;;;;;;;;;0.40;99.90;;;;;;5014666;28;19914;-78
2021/12/26 13:33:25;;;;;;;;;;;0.30;99.90;;;;;;5014707;28;19953;-78
2021/12/26 13:35:51;;;;;;;;;;;0.30;99.90;;;;;;5014127;28;19956;-79
2021/12/26 13:38:18;;;;;;;;;;;0.30;99.90;;;;;;5014635;28;19920;-78
2021/12/26 13:40:48;;;;;;;;;;;0.40;99.90;;;;;;5014425;28;20212;-78
2021/12/26 13:43:13;;;;;;;;;;;0.40;99.90;;;;;;5020124;28;20008;-77
2021/12/26 13:45:43;;;;;;;;;;;0.50;99.90;;;;;;5014807;28;19937;-78
2021/12/26 13:48:09;;;;;;;;;;;0.50;99.90;;;;;;5015439;28;19909;-78
2021/12/26 13:50:35;;;;;;;;;;;0.50;99.90;;;;;;5013528;28;19918;-78
2021/12/26 13:53:05;;;;;;;;;;;0.50;99.90;;;;;;5011852;28;19971;-78
2021/12/26 13:55:33;;;;;;;;;;;0.50;99.90;;;;;;5015772;28;19929;-78
2021/12/26 13:58:00;;;;;;;;;;;0.50;99.90;;;;;;5017289;28;19921;-78
2021/12/26 14:00:26;;;;;;;;;;;0.50;99.90;;;;;;5018909;28;19925;-78
2021/12/26 14:02:51;;;;;;;;;;;0.60;99.90;;;;;;5018887;28;19921;-78
2021/12/26 14:05:20;;;;;;;;;;;0.60;99.90;;;;;;5018779;28;19916;-79
2021/12/26 14:07:51;;;;;;;;;;;0.60;99.90;;;;;;5017920;28;19920;-78
2021/12/26 14:10:19;;;;;;;;;;;0.60;99.90;;;;;;5018788;28;19910;-78
2021/12/26 14:12:46;;;;;;;;;;;0.60;99.90;;;;;;5034122;28;20008;-78
2021/12/26 14:15:24;;;;;;;;;;;0.60;99.90;;;;;;5018805;28;19917;-77
2021/12/26 14:17:51;;;;;;;;;;;0.60;99.90;;;;;;5017704;28;20055;-77
2021/12/26 14:20:16;;;;;;;;;;;0.60;99.90;;;;;;5018216;28;19924;-77
2021/12/26 14:22:42;;;;;;;;;;;0.60;99.90;;;;;;5016986;28;19910;-74
2021/12/26 14:25:10;;;;;;;;;;;0.60;99.90;;;;;;5018008;28;20304;-78